Más de esta sección

METAR-AERONAUTICA

SADR31 MDSD 271800Z
METAR
METAR MDPP 271800Z 06017KT 9999 FEW023 32/27 Q1012=
METAR MDST 271800Z 10006KT 9999 FEW027 32/22 Q1013=
METAR MDPC 271800Z 15009KT 9999 FEW025 30/25 Q1013=
METAR MDBH 271800Z 13010KT 9999 FEW020CB FEW022 SCT300 33/23 Q1013 CB/SW=
METAR MDJB 271800Z 18010KT 9999 SCT020 34/23 Q1013=
METAR MDSD 271800Z 18006KT 9999 SCT023 32/25 Q1012=
METAR MDLR 271800Z 20013KT 9999 FEW022CB BKN020 33/33/27 Q1012 CB/NE/E/NW=
METAR MDCY 271800Z 06012KT 9999 FEW020 31/26 Q1012=
METAR MDAB 271800Z 09006KT 9999 FEW022 33/26 Q1013=